sensor_id;sensor_type;location;lat;lon;timestamp;P1;durP1;ratioP1;P2;durP2;ratioP2
5225;SDS011;2632;51.666;7.146;2023-04-25T00:01:16;16.00;;;4.73;;
5225;SDS011;2632;51.666;7.146;2023-04-25T00:03:42;13.80;;;4.70;;
5225;SDS011;2632;51.666;7.146;2023-04-25T00:06:09;22.80;;;5.70;;
5225;SDS011;2632;51.666;7.146;2023-04-25T00:08:36;16.87;;;4.20;;
5225;SDS011;2632;51.666;7.146;2023-04-25T00:11:02;13.63;;;3.80;;
5225;SDS011;2632;51.666;7.146;2023-04-25T00:13:29;13.77;;;5.00;;
5225;SDS011;2632;51.666;7.146;2023-04-25T00:15:56;9.50;;;4.30;;
5225;SDS011;2632;51.666;7.146;2023-04-25T00:18:24;10.47;;;4.77;;
5225;SDS011;2632;51.666;7.146;2023-04-25T00:20:50;11.83;;;4.17;;
5225;SDS011;2632;51.666;7.146;2023-04-25T00:23:17;11.20;;;4.03;;
5225;SDS011;2632;51.666;7.146;2023-04-25T00:25:44;16.50;;;5.03;;
5225;SDS011;2632;51.666;7.146;2023-04-25T00:28:12;15.67;;;5.20;;
5225;SDS011;2632;51.666;7.146;2023-04-25T00:30:39;10.97;;;3.80;;
5225;SDS011;2632;51.666;7.146;2023-04-25T00:33:07;14.90;;;4.53;;
5225;SDS011;2632;51.666;7.146;2023-04-25T00:35:34;13.20;;;4.40;;
5225;SDS011;2632;51.666;7.146;2023-04-25T00:38:01;11.13;;;4.53;;
5225;SDS011;2632;51.666;7.146;2023-04-25T00:40:28;10.50;;;4.00;;
5225;SDS011;2632;51.666;7.146;2023-04-25T00:42:54;11.23;;;4.43;;
5225;SDS011;2632;51.666;7.146;2023-04-25T00:45:21;9.80;;;5.07;;
5225;SDS011;2632;51.666;7.146;2023-04-25T00:47:52;12.80;;;3.50;;
5225;SDS011;2632;51.666;7.146;2023-04-25T00:50:20;12.23;;;3.43;;
5225;SDS011;2632;51.666;7.146;2023-04-25T00:52:47;9.87;;;4.40;;
5225;SDS011;2632;51.666;7.146;2023-04-25T00:55:13;10.60;;;4.00;;
5225;SDS011;2632;51.666;7.146;2023-04-25T00:57:41;7.20;;;4.30;;
5225;SDS011;2632;51.666;7.146;2023-04-25T01:00:08;9.13;;;4.00;;
5225;SDS011;2632;51.666;7.146;2023-04-25T01:02:37;14.70;;;3.73;;
5225;SDS011;2632;51.666;7.146;2023-04-25T01:05:04;10.13;;;3.67;;
5225;SDS011;2632;51.666;7.146;2023-04-25T01:07:31;7.33;;;3.97;;
5225;SDS011;2632;51.666;7.146;2023-04-25T01:09:57;6.47;;;3.07;;
5225;SDS011;2632;51.666;7.146;2023-04-25T01:12:24;13.47;;;3.50;;
5225;SDS011;2632;51.666;7.146;2023-04-25T01:14:51;12.57;;;3.97;;
5225;SDS011;2632;51.666;7.146;2023-04-25T01:17:18;11.17;;;3.70;;
5225;SDS011;2632;51.666;7.146;2023-04-25T01:19:45;9.43;;;3.20;;
5225;SDS011;2632;51.666;7.146;2023-04-25T01:22:14;7.87;;;3.50;;
5225;SDS011;2632;51.666;7.146;2023-04-25T01:24:41;10.40;;;3.10;;
5225;SDS011;2632;51.666;7.146;2023-04-25T01:27:08;10.00;;;3.90;;
5225;SDS011;2632;51.666;7.146;2023-04-25T01:29:35;6.63;;;3.13;;
5225;SDS011;2632;51.666;7.146;2023-04-25T01:32:02;6.93;;;3.40;;
5225;SDS011;2632;51.666;7.146;2023-04-25T01:34:30;7.07;;;3.23;;
5225;SDS011;2632;51.666;7.146;2023-04-25T01:36:57;5.83;;;3.10;;
5225;SDS011;2632;51.666;7.146;2023-04-25T01:39:26;6.50;;;3.37;;
5225;SDS011;2632;51.666;7.146;2023-04-25T01:41:52;7.40;;;3.07;;
5225;SDS011;2632;51.666;7.146;2023-04-25T01:44:19;11.10;;;3.40;;
5225;SDS011;2632;51.666;7.146;2023-04-25T01:46:46;8.70;;;3.57;;
5225;SDS011;2632;51.666;7.146;2023-04-25T01:49:12;10.30;;;3.33;;
5225;SDS011;2632;51.666;7.146;2023-04-25T01:51:39;7.50;;;3.17;;
5225;SDS011;2632;51.666;7.146;2023-04-25T01:54:06;7.60;;;3.50;;
5225;SDS011;2632;51.666;7.146;2023-04-25T01:56:36;9.77;;;3.50;;
5225;SDS011;2632;51.666;7.146;2023-04-25T01:59:04;10.13;;;3.27;;
5225;SDS011;2632;51.666;7.146;2023-04-25T02:01:31;7.83;;;3.70;;
5225;SDS011;2632;51.666;7.146;2023-04-25T02:03:58;13.77;;;4.47;;
5225;SDS011;2632;51.666;7.146;2023-04-25T02:06:26;10.87;;;3.60;;
5225;SDS011;2632;51.666;7.146;2023-04-25T02:08:52;7.27;;;3.97;;
5225;SDS011;2632;51.666;7.146;2023-04-25T02:11:19;8.60;;;3.57;;
5225;SDS011;2632;51.666;7.146;2023-04-25T02:13:46;7.43;;;3.67;;
5225;SDS011;2632;51.666;7.146;2023-04-25T02:16:12;10.60;;;4.03;;
5225;SDS011;2632;51.666;7.146;2023-04-25T02:18:39;8.47;;;4.30;;
5225;SDS011;2632;51.666;7.146;2023-04-25T02:21:06;11.20;;;4.37;;
5225;SDS011;2632;51.666;7.146;2023-04-25T02:23:33;11.57;;;4.23;;
5225;SDS011;2632;51.666;7.146;2023-04-25T02:25:59;8.70;;;4.10;;
5225;SDS011;2632;51.666;7.146;2023-04-25T02:28:26;7.93;;;3.97;;
5225;SDS011;2632;51.666;7.146;2023-04-25T02:30:53;11.03;;;5.20;;
5225;SDS011;2632;51.666;7.146;2023-04-25T02:33:19;8.57;;;3.63;;
5225;SDS011;2632;51.666;7.146;2023-04-25T02:35:47;6.80;;;3.43;;
5225;SDS011;2632;51.666;7.146;2023-04-25T02:38:14;12.60;;;5.10;;
5225;SDS011;2632;51.666;7.146;2023-04-25T02:40:40;13.10;;;4.57;;
5225;SDS011;2632;51.666;7.146;2023-04-25T02:43:07;9.90;;;4.03;;
5225;SDS011;2632;51.666;7.146;2023-04-25T02:45:34;8.67;;;4.47;;
5225;SDS011;2632;51.666;7.146;2023-04-25T02:48:02;15.40;;;4.43;;
5225;SDS011;2632;51.666;7.146;2023-04-25T02:50:29;9.63;;;4.67;;
5225;SDS011;2632;51.666;7.146;2023-04-25T02:52:56;13.23;;;4.80;;
5225;SDS011;2632;51.666;7.146;2023-04-25T02:55:23;9.90;;;4.70;;
5225;SDS011;2632;51.666;7.146;2023-04-25T02:57:53;18.67;;;5.30;;
5225;SDS011;2632;51.666;7.146;2023-04-25T03:00:21;11.37;;;4.47;;
5225;SDS011;2632;51.666;7.146;2023-04-25T03:02:48;9.70;;;4.80;;
5225;SDS011;2632;51.666;7.146;2023-04-25T03:05:15;12.17;;;4.70;;
5225;SDS011;2632;51.666;7.146;2023-04-25T03:07:43;10.00;;;4.57;;
5225;SDS011;2632;51.666;7.146;2023-04-25T03:10:10;17.27;;;4.80;;
5225;SDS011;2632;51.666;7.146;2023-04-25T03:12:37;7.50;;;4.20;;
5225;SDS011;2632;51.666;7.146;2023-04-25T03:15:04;11.87;;;4.43;;
5225;SDS011;2632;51.666;7.146;2023-04-25T03:17:31;10.40;;;4.60;;
5225;SDS011;2632;51.666;7.146;2023-04-25T03:19:58;14.63;;;5.80;;
5225;SDS011;2632;51.666;7.146;2023-04-25T03:22:25;10.43;;;4.53;;
5225;SDS011;2632;51.666;7.146;2023-04-25T03:24:51;12.10;;;4.23;;
5225;SDS011;2632;51.666;7.146;2023-04-25T03:27:18;9.30;;;4.30;;
5225;SDS011;2632;51.666;7.146;2023-04-25T03:29:44;14.80;;;5.20;;
5225;SDS011;2632;51.666;7.146;2023-04-25T03:32:11;14.40;;;4.80;;
5225;SDS011;2632;51.666;7.146;2023-04-25T03:34:38;10.47;;;3.10;;
5225;SDS011;2632;51.666;7.146;2023-04-25T03:37:04;7.77;;;2.60;;
5225;SDS011;2632;51.666;7.146;2023-04-25T03:39:31;6.00;;;2.63;;
5225;SDS011;2632;51.666;7.146;2023-04-25T03:41:57;9.93;;;2.27;;
5225;SDS011;2632;51.666;7.146;2023-04-25T03:44:24;6.47;;;2.90;;
5225;SDS011;2632;51.666;7.146;2023-04-25T03:46:51;8.70;;;2.70;;
5225;SDS011;2632;51.666;7.146;2023-04-25T03:49:17;10.37;;;2.67;;
5225;SDS011;2632;51.666;7.146;2023-04-25T03:51:44;7.80;;;2.90;;
5225;SDS011;2632;51.666;7.146;2023-04-25T03:54:11;9.87;;;2.40;;
5225;SDS011;2632;51.666;7.146;2023-04-25T03:56:38;6.07;;;2.77;;
5225;SDS011;2632;51.666;7.146;2023-04-25T03:59:04;5.70;;;2.43;;
5225;SDS011;2632;51.666;7.146;2023-04-25T04:01:31;10.20;;;3.30;;
5225;SDS011;2632;51.666;7.146;2023-04-25T04:03:57;5.27;;;2.50;;
5225;SDS011;2632;51.666;7.146;2023-04-25T04:06:25;14.70;;;2.80;;
5225;SDS011;2632;51.666;7.146;2023-04-25T04:08:51;7.00;;;2.67;;
5225;SDS011;2632;51.666;7.146;2023-04-25T04:11:18;6.93;;;2.63;;
5225;SDS011;2632;51.666;7.146;2023-04-25T04:13:44;9.80;;;3.77;;
5225;SDS011;2632;51.666;7.146;2023-04-25T04:16:11;5.40;;;3.10;;
5225;SDS011;2632;51.666;7.146;2023-04-25T04:18:38;8.03;;;2.40;;
5225;SDS011;2632;51.666;7.146;2023-04-25T04:21:04;6.70;;;3.10;;
5225;SDS011;2632;51.666;7.146;2023-04-25T04:23:31;6.80;;;2.90;;
5225;SDS011;2632;51.666;7.146;2023-04-25T04:25:57;8.83;;;2.80;;
5225;SDS011;2632;51.666;7.146;2023-04-25T04:28:24;9.07;;;3.13;;
5225;SDS011;2632;51.666;7.146;2023-04-25T04:30:52;7.90;;;2.90;;
5225;SDS011;2632;51.666;7.146;2023-04-25T04:33:19;7.50;;;2.53;;
5225;SDS011;2632;51.666;7.146;2023-04-25T04:35:45;12.17;;;4.20;;
5225;SDS011;2632;51.666;7.146;2023-04-25T04:38:13;7.20;;;3.03;;
5225;SDS011;2632;51.666;7.146;2023-04-25T04:40:41;7.83;;;3.13;;
5225;SDS011;2632;51.666;7.146;2023-04-25T04:43:12;11.73;;;2.90;;
5225;SDS011;2632;51.666;7.146;2023-04-25T04:45:39;6.27;;;2.73;;
5225;SDS011;2632;51.666;7.146;2023-04-25T04:48:06;11.60;;;3.20;;
5225;SDS011;2632;51.666;7.146;2023-04-25T04:50:33;8.43;;;3.53;;
5225;SDS011;2632;51.666;7.146;2023-04-25T04:53:00;6.33;;;3.20;;
5225;SDS011;2632;51.666;7.146;2023-04-25T04:55:27;9.00;;;3.07;;
5225;SDS011;2632;51.666;7.146;2023-04-25T04:57:54;10.00;;;3.40;;
5225;SDS011;2632;51.666;7.146;2023-04-25T05:00:21;12.97;;;3.27;;
5225;SDS011;2632;51.666;7.146;2023-04-25T05:02:48;7.07;;;2.90;;
5225;SDS011;2632;51.666;7.146;2023-04-25T05:05:15;10.07;;;4.03;;
5225;SDS011;2632;51.666;7.146;2023-04-25T05:07:41;7.90;;;2.97;;
5225;SDS011;2632;51.666;7.146;2023-04-25T05:10:08;5.23;;;3.33;;
5225;SDS011;2632;51.666;7.146;2023-04-25T05:12:35;9.47;;;3.30;;
5225;SDS011;2632;51.666;7.146;2023-04-25T05:15:02;8.13;;;2.90;;
5225;SDS011;2632;51.666;7.146;2023-04-25T05:17:29;17.40;;;4.10;;
5225;SDS011;2632;51.666;7.146;2023-04-25T05:19:55;9.57;;;3.73;;
5225;SDS011;2632;51.666;7.146;2023-04-25T05:22:23;8.80;;;3.80;;
5225;SDS011;2632;51.666;7.146;2023-04-25T05:24:49;15.07;;;4.73;;
5225;SDS011;2632;51.666;7.146;2023-04-25T05:27:20;9.23;;;4.00;;
5225;SDS011;2632;51.666;7.146;2023-04-25T05:29:46;13.10;;;4.57;;
5225;SDS011;2632;51.666;7.146;2023-04-25T05:32:13;9.37;;;4.33;;
5225;SDS011;2632;51.666;7.146;2023-04-25T05:34:40;15.10;;;4.17;;
5225;SDS011;2632;51.666;7.146;2023-04-25T05:37:08;15.10;;;4.50;;
5225;SDS011;2632;51.666;7.146;2023-04-25T05:39:34;12.17;;;4.07;;
5225;SDS011;2632;51.666;7.146;2023-04-25T05:42:01;11.90;;;4.33;;
5225;SDS011;2632;51.666;7.146;2023-04-25T05:44:28;14.10;;;4.63;;
5225;SDS011;2632;51.666;7.146;2023-04-25T05:46:54;13.30;;;4.50;;
5225;SDS011;2632;51.666;7.146;2023-04-25T05:49:21;14.33;;;4.87;;
5225;SDS011;2632;51.666;7.146;2023-04-25T05:51:48;10.43;;;4.10;;
5225;SDS011;2632;51.666;7.146;2023-04-25T05:54:14;15.83;;;5.10;;
5225;SDS011;2632;51.666;7.146;2023-04-25T05:56:41;16.13;;;4.63;;
5225;SDS011;2632;51.666;7.146;2023-04-25T05:59:07;8.40;;;4.77;;
5225;SDS011;2632;51.666;7.146;2023-04-25T06:01:34;9.43;;;4.10;;
5225;SDS011;2632;51.666;7.146;2023-04-25T06:04:01;15.50;;;4.77;;
5225;SDS011;2632;51.666;7.146;2023-04-25T06:06:28;10.90;;;4.47;;
5225;SDS011;2632;51.666;7.146;2023-04-25T06:08:55;19.20;;;4.80;;
5225;SDS011;2632;51.666;7.146;2023-04-25T06:11:21;14.10;;;4.60;;
5225;SDS011;2632;51.666;7.146;2023-04-25T06:13:48;8.67;;;4.00;;
5225;SDS011;2632;51.666;7.146;2023-04-25T06:16:15;10.40;;;4.63;;
5225;SDS011;2632;51.666;7.146;2023-04-25T06:18:42;11.13;;;3.60;;
5225;SDS011;2632;51.666;7.146;2023-04-25T06:21:09;13.13;;;4.70;;
5225;SDS011;2632;51.666;7.146;2023-04-25T06:23:35;13.67;;;4.47;;
5225;SDS011;2632;51.666;7.146;2023-04-25T06:26:02;13.40;;;4.30;;
5225;SDS011;2632;51.666;7.146;2023-04-25T06:28:29;14.80;;;4.30;;
5225;SDS011;2632;51.666;7.146;2023-04-25T06:30:56;14.50;;;4.20;;
5225;SDS011;2632;51.666;7.146;2023-04-25T06:33:22;11.77;;;3.77;;
5225;SDS011;2632;51.666;7.146;2023-04-25T06:35:50;9.70;;;4.13;;
5225;SDS011;2632;51.666;7.146;2023-04-25T06:38:17;13.30;;;4.00;;
5225;SDS011;2632;51.666;7.146;2023-04-25T06:40:43;11.07;;;4.00;;
5225;SDS011;2632;51.666;7.146;2023-04-25T06:43:10;10.07;;;3.93;;
5225;SDS011;2632;51.666;7.146;2023-04-25T06:45:37;13.23;;;3.87;;
5225;SDS011;2632;51.666;7.146;2023-04-25T06:48:03;11.10;;;4.57;;
5225;SDS011;2632;51.666;7.146;2023-04-25T06:50:30;8.70;;;3.43;;
5225;SDS011;2632;51.666;7.146;2023-04-25T06:52:56;14.47;;;4.00;;
5225;SDS011;2632;51.666;7.146;2023-04-25T06:55:23;11.80;;;4.27;;
5225;SDS011;2632;51.666;7.146;2023-04-25T06:57:50;12.37;;;3.80;;
5225;SDS011;2632;51.666;7.146;2023-04-25T07:00:16;8.67;;;3.60;;
5225;SDS011;2632;51.666;7.146;2023-04-25T07:02:44;9.20;;;4.07;;
5225;SDS011;2632;51.666;7.146;2023-04-25T07:05:11;9.50;;;3.70;;
5225;SDS011;2632;51.666;7.146;2023-04-25T07:07:38;9.17;;;3.80;;
5225;SDS011;2632;51.666;7.146;2023-04-25T07:10:04;11.73;;;3.67;;
5225;SDS011;2632;51.666;7.146;2023-04-25T07:12:31;8.07;;;4.10;;
5225;SDS011;2632;51.666;7.146;2023-04-25T07:14:58;16.83;;;3.10;;
5225;SDS011;2632;51.666;7.146;2023-04-25T07:17:25;13.97;;;3.37;;
5225;SDS011;2632;51.666;7.146;2023-04-25T07:19:51;10.60;;;3.10;;
5225;SDS011;2632;51.666;7.146;2023-04-25T07:22:18;13.20;;;3.50;;
5225;SDS011;2632;51.666;7.146;2023-04-25T07:24:44;8.23;;;3.47;;
5225;SDS011;2632;51.666;7.146;2023-04-25T07:27:14;13.57;;;3.00;;
5225;SDS011;2632;51.666;7.146;2023-04-25T07:29:41;6.73;;;2.67;;
5225;SDS011;2632;51.666;7.146;2023-04-25T07:32:08;10.70;;;2.53;;
5225;SDS011;2632;51.666;7.146;2023-04-25T07:34:36;6.50;;;2.70;;
5225;SDS011;2632;51.666;7.146;2023-04-25T07:37:04;10.20;;;2.93;;
5225;SDS011;2632;51.666;7.146;2023-04-25T07:39:31;6.50;;;2.70;;
5225;SDS011;2632;51.666;7.146;2023-04-25T07:41:58;8.30;;;2.80;;
5225;SDS011;2632;51.666;7.146;2023-04-25T07:44:24;14.97;;;3.00;;
5225;SDS011;2632;51.666;7.146;2023-04-25T07:46:51;9.80;;;2.77;;
5225;SDS011;2632;51.666;7.146;2023-04-25T07:49:18;13.53;;;2.37;;
5225;SDS011;2632;51.666;7.146;2023-04-25T07:51:45;10.30;;;3.13;;
5225;SDS011;2632;51.666;7.146;2023-04-25T07:54:14;12.77;;;3.13;;
5225;SDS011;2632;51.666;7.146;2023-04-25T07:56:44;13.77;;;3.30;;
5225;SDS011;2632;51.666;7.146;2023-04-25T07:59:18;5.13;;;2.70;;
5225;SDS011;2632;51.666;7.146;2023-04-25T08:01:45;5.27;;;2.00;;
5225;SDS011;2632;51.666;7.146;2023-04-25T08:04:12;6.23;;;2.80;;
5225;SDS011;2632;51.666;7.146;2023-04-25T08:06:39;7.37;;;2.97;;
5225;SDS011;2632;51.666;7.146;2023-04-25T08:09:06;8.83;;;2.47;;
5225;SDS011;2632;51.666;7.146;2023-04-25T08:11:35;5.43;;;2.13;;
5225;SDS011;2632;51.666;7.146;2023-04-25T08:14:02;5.30;;;2.17;;
5225;SDS011;2632;51.666;7.146;2023-04-25T08:16:28;11.37;;;2.63;;
5225;SDS011;2632;51.666;7.146;2023-04-25T08:18:56;7.23;;;2.53;;
5225;SDS011;2632;51.666;7.146;2023-04-25T08:21:22;5.17;;;2.00;;
5225;SDS011;2632;51.666;7.146;2023-04-25T08:23:49;8.27;;;1.93;;
5225;SDS011;2632;51.666;7.146;2023-04-25T08:26:15;8.80;;;2.17;;
5225;SDS011;2632;51.666;7.146;2023-04-25T08:28:42;7.63;;;2.30;;
5225;SDS011;2632;51.666;7.146;2023-04-25T08:31:12;5.40;;;1.93;;
5225;SDS011;2632;51.666;7.146;2023-04-25T08:33:38;4.67;;;1.80;;
5225;SDS011;2632;51.666;7.146;2023-04-25T08:36:05;5.27;;;2.37;;
5225;SDS011;2632;51.666;7.146;2023-04-25T08:38:31;5.10;;;1.90;;
5225;SDS011;2632;51.666;7.146;2023-04-25T08:40:58;5.70;;;1.80;;
5225;SDS011;2632;51.666;7.146;2023-04-25T08:43:26;3.13;;;1.33;;
5225;SDS011;2632;51.666;7.146;2023-04-25T08:46:00;4.80;;;2.10;;
5225;SDS011;2632;51.666;7.146;2023-04-25T08:48:27;5.63;;;2.30;;
5225;SDS011;2632;51.666;7.146;2023-04-25T08:50:55;9.37;;;2.00;;
5225;SDS011;2632;51.666;7.146;2023-04-25T08:53:25;10.03;;;2.60;;
5225;SDS011;2632;51.666;7.146;2023-04-25T08:55:54;7.40;;;1.70;;
5225;SDS011;2632;51.666;7.146;2023-04-25T08:58:22;8.70;;;2.30;;
5225;SDS011;2632;51.666;7.146;2023-04-25T09:00:49;7.53;;;2.30;;
5225;SDS011;2632;51.666;7.146;2023-04-25T09:03:17;5.50;;;1.50;;
5225;SDS011;2632;51.666;7.146;2023-04-25T09:05:44;5.10;;;2.10;;
5225;SDS011;2632;51.666;7.146;2023-04-25T09:08:11;5.47;;;1.80;;
5225;SDS011;2632;51.666;7.146;2023-04-25T09:10:38;4.27;;;1.70;;
5225;SDS011;2632;51.666;7.146;2023-04-25T09:13:06;6.23;;;2.17;;
5225;SDS011;2632;51.666;7.146;2023-04-25T09:15:48;6.30;;;1.43;;
5225;SDS011;2632;51.666;7.146;2023-04-25T09:21:06;6.70;;;1.63;;
5225;SDS011;2632;51.666;7.146;2023-04-25T09:26:13;5.03;;;1.30;;
5225;SDS011;2632;51.666;7.146;2023-04-25T09:28:41;4.53;;;1.13;;
5225;SDS011;2632;51.666;7.146;2023-04-25T09:31:12;5.47;;;1.70;;
5225;SDS011;2632;51.666;7.146;2023-04-25T09:33:47;11.00;;;1.87;;
5225;SDS011;2632;51.666;7.146;2023-04-25T09:36:15;8.43;;;2.17;;
5225;SDS011;2632;51.666;7.146;2023-04-25T09:38:42;8.83;;;1.93;;
5225;SDS011;2632;51.666;7.146;2023-04-25T09:41:10;4.13;;;1.60;;
5225;SDS011;2632;51.666;7.146;2023-04-25T09:43:38;2.77;;;1.33;;
5225;SDS011;2632;51.666;7.146;2023-04-25T09:46:09;3.00;;;1.00;;
5225;SDS011;2632;51.666;7.146;2023-04-25T09:48:37;10.20;;;2.00;;
5225;SDS011;2632;51.666;7.146;2023-04-25T09:51:08;4.70;;;1.83;;
5225;SDS011;2632;51.666;7.146;2023-04-25T09:53:37;7.77;;;1.80;;
5225;SDS011;2632;51.666;7.146;2023-04-25T09:56:06;4.37;;;1.30;;
5225;SDS011;2632;51.666;7.146;2023-04-25T09:58:35;4.20;;;1.77;;
5225;SDS011;2632;51.666;7.146;2023-04-25T10:01:04;2.27;;;1.20;;
5225;SDS011;2632;51.666;7.146;2023-04-25T10:03:36;2.43;;;0.90;;
5225;SDS011;2632;51.666;7.146;2023-04-25T10:06:12;3.80;;;1.20;;
5225;SDS011;2632;51.666;7.146;2023-04-25T10:08:43;3.07;;;1.23;;
5225;SDS011;2632;51.666;7.146;2023-04-25T10:11:10;2.83;;;1.50;;
5225;SDS011;2632;51.666;7.146;2023-04-25T10:13:38;3.90;;;1.40;;
5225;SDS011;2632;51.666;7.146;2023-04-25T10:16:05;3.13;;;1.50;;
5225;SDS011;2632;51.666;7.146;2023-04-25T10:18:32;8.40;;;1.30;;
5225;SDS011;2632;51.666;7.146;2023-04-25T10:21:00;3.43;;;1.37;;
5225;SDS011;2632;51.666;7.146;2023-04-25T10:23:29;4.03;;;1.57;;
5225;SDS011;2632;51.666;7.146;2023-04-25T10:25:56;13.83;;;1.50;;
5225;SDS011;2632;51.666;7.146;2023-04-25T10:28:24;10.27;;;2.17;;
5225;SDS011;2632;51.666;7.146;2023-04-25T10:30:58;5.90;;;1.53;;
5225;SDS011;2632;51.666;7.146;2023-04-25T10:33:34;3.33;;;1.53;;
5225;SDS011;2632;51.666;7.146;2023-04-25T10:36:12;7.97;;;1.90;;
5225;SDS011;2632;51.666;7.146;2023-04-25T10:38:44;8.40;;;1.67;;
5225;SDS011;2632;51.666;7.146;2023-04-25T10:41:12;5.03;;;1.30;;
5225;SDS011;2632;51.666;7.146;2023-04-25T10:43:40;4.57;;;2.00;;
5225;SDS011;2632;51.666;7.146;2023-04-25T10:46:18;7.70;;;1.50;;
5225;SDS011;2632;51.666;7.146;2023-04-25T10:48:49;3.50;;;1.37;;
5225;SDS011;2632;51.666;7.146;2023-04-25T10:51:24;2.40;;;1.00;;
5225;SDS011;2632;51.666;7.146;2023-04-25T10:54:18;4.43;;;0.80;;
5225;SDS011;2632;51.666;7.146;2023-04-25T10:56:48;1.50;;;0.83;;
5225;SDS011;2632;51.666;7.146;2023-04-25T10:59:15;3.77;;;1.10;;
5225;SDS011;2632;51.666;7.146;2023-04-25T11:01:44;1.00;;;0.90;;
5225;SDS011;2632;51.666;7.146;2023-04-25T11:04:28;2.40;;;1.00;;
5225;SDS011;2632;51.666;7.146;2023-04-25T11:07:00;2.50;;;0.77;;
5225;SDS011;2632;51.666;7.146;2023-04-25T11:09:34;3.23;;;0.90;;
5225;SDS011;2632;51.666;7.146;2023-04-25T11:12:01;4.93;;;1.30;;
5225;SDS011;2632;51.666;7.146;2023-04-25T11:14:28;2.60;;;0.90;;
5225;SDS011;2632;51.666;7.146;2023-04-25T11:16:58;2.80;;;1.23;;
5225;SDS011;2632;51.666;7.146;2023-04-25T11:19:26;3.60;;;1.00;;
5225;SDS011;2632;51.666;7.146;2023-04-25T11:21:55;1.10;;;0.50;;
5225;SDS011;2632;51.666;7.146;2023-04-25T11:24:27;1.20;;;0.60;;
5225;SDS011;2632;51.666;7.146;2023-04-25T11:27:03;1.53;;;0.80;;
5225;SDS011;2632;51.666;7.146;2023-04-25T11:29:32;3.20;;;0.87;;
5225;SDS011;2632;51.666;7.146;2023-04-25T11:32:00;2.70;;;0.80;;
5225;SDS011;2632;51.666;7.146;2023-04-25T11:34:28;3.23;;;0.67;;
5225;SDS011;2632;51.666;7.146;2023-04-25T11:36:59;2.40;;;0.70;;
5225;SDS011;2632;51.666;7.146;2023-04-25T11:39:28;2.80;;;0.77;;
5225;SDS011;2632;51.666;7.146;2023-04-25T11:41:55;1.30;;;0.67;;
5225;SDS011;2632;51.666;7.146;2023-04-25T11:44:21;9.23;;;2.83;;
5225;SDS011;2632;51.666;7.146;2023-04-25T11:46:48;7.70;;;2.50;;
5225;SDS011;2632;51.666;7.146;2023-04-25T11:49:15;10.70;;;5.57;;
5225;SDS011;2632;51.666;7.146;2023-04-25T11:51:45;2.87;;;1.00;;
5225;SDS011;2632;51.666;7.146;2023-04-25T11:54:13;2.43;;;0.80;;
5225;SDS011;2632;51.666;7.146;2023-04-25T11:56:41;1.17;;;0.63;;
5225;SDS011;2632;51.666;7.146;2023-04-25T11:59:08;1.23;;;0.80;;
5225;SDS011;2632;51.666;7.146;2023-04-25T12:01:37;3.13;;;0.83;;
5225;SDS011;2632;51.666;7.146;2023-04-25T12:04:16;2.67;;;0.80;;
5225;SDS011;2632;51.666;7.146;2023-04-25T12:06:45;0.97;;;0.80;;
5225;SDS011;2632;51.666;7.146;2023-04-25T12:09:16;3.93;;;1.13;;
5225;SDS011;2632;51.666;7.146;2023-04-25T12:11:54;4.10;;;1.10;;
5225;SDS011;2632;51.666;7.146;2023-04-25T12:14:22;1.70;;;0.90;;
5225;SDS011;2632;51.666;7.146;2023-04-25T12:17:00;1.77;;;0.70;;
5225;SDS011;2632;51.666;7.146;2023-04-25T12:19:34;4.40;;;0.90;;
5225;SDS011;2632;51.666;7.146;2023-04-25T12:22:02;1.00;;;0.50;;
5225;SDS011;2632;51.666;7.146;2023-04-25T12:24:44;1.70;;;0.77;;
5225;SDS011;2632;51.666;7.146;2023-04-25T12:27:13;5.23;;;1.47;;
5225;SDS011;2632;51.666;7.146;2023-04-25T12:29:51;2.70;;;1.00;;
5225;SDS011;2632;51.666;7.146;2023-04-25T12:32:22;2.27;;;0.93;;
5225;SDS011;2632;51.666;7.146;2023-04-25T12:34:49;4.07;;;0.80;;
5225;SDS011;2632;51.666;7.146;2023-04-25T12:37:16;3.33;;;1.10;;
5225;SDS011;2632;51.666;7.146;2023-04-25T12:39:43;5.60;;;0.97;;
5225;SDS011;2632;51.666;7.146;2023-04-25T12:42:09;2.60;;;1.00;;
5225;SDS011;2632;51.666;7.146;2023-04-25T12:44:39;1.73;;;0.80;;
5225;SDS011;2632;51.666;7.146;2023-04-25T12:47:07;2.10;;;0.80;;
5225;SDS011;2632;51.666;7.146;2023-04-25T12:49:36;3.33;;;1.10;;
5225;SDS011;2632;51.666;7.146;2023-04-25T12:52:03;0.90;;;0.80;;
5225;SDS011;2632;51.666;7.146;2023-04-25T12:54:30;1.33;;;0.80;;
5225;SDS011;2632;51.666;7.146;2023-04-25T12:56:57;2.57;;;0.90;;
5225;SDS011;2632;51.666;7.146;2023-04-25T12:59:24;2.03;;;0.90;;
5225;SDS011;2632;51.666;7.146;2023-04-25T13:01:50;5.37;;;1.30;;
5225;SDS011;2632;51.666;7.146;2023-04-25T13:04:17;5.10;;;1.00;;
5225;SDS011;2632;51.666;7.146;2023-04-25T13:06:46;3.23;;;0.90;;
5225;SDS011;2632;51.666;7.146;2023-04-25T13:09:14;2.80;;;0.80;;
5225;SDS011;2632;51.666;7.146;2023-04-25T13:11:41;1.27;;;0.70;;
5225;SDS011;2632;51.666;7.146;2023-04-25T13:14:08;1.87;;;0.73;;
5225;SDS011;2632;51.666;7.146;2023-04-25T13:16:34;1.37;;;0.90;;
5225;SDS011;2632;51.666;7.146;2023-04-25T13:19:01;4.13;;;3.00;;
5225;SDS011;2632;51.666;7.146;2023-04-25T13:21:29;5.93;;;1.00;;
5225;SDS011;2632;51.666;7.146;2023-04-25T13:23:58;4.00;;;1.27;;
5225;SDS011;2632;51.666;7.146;2023-04-25T13:26:25;1.20;;;0.70;;
5225;SDS011;2632;51.666;7.146;2023-04-25T13:28:51;1.07;;;0.80;;
5225;SDS011;2632;51.666;7.146;2023-04-25T13:31:18;0.70;;;0.70;;
5225;SDS011;2632;51.666;7.146;2023-04-25T13:33:45;1.70;;;1.03;;
5225;SDS011;2632;51.666;7.146;2023-04-25T13:36:11;3.47;;;1.00;;
5225;SDS011;2632;51.666;7.146;2023-04-25T13:38:38;1.37;;;0.80;;
5225;SDS011;2632;51.666;7.146;2023-04-25T13:41:07;1.67;;;0.90;;
5225;SDS011;2632;51.666;7.146;2023-04-25T13:43:34;2.20;;;0.93;;
5225;SDS011;2632;51.666;7.146;2023-04-25T13:46:00;2.40;;;0.93;;
5225;SDS011;2632;51.666;7.146;2023-04-25T13:48:27;2.23;;;1.20;;
5225;SDS011;2632;51.666;7.146;2023-04-25T13:50:54;3.30;;;1.10;;
5225;SDS011;2632;51.666;7.146;2023-04-25T13:53:20;3.20;;;1.00;;
5225;SDS011;2632;51.666;7.146;2023-04-25T13:55:47;1.40;;;0.80;;
5225;SDS011;2632;51.666;7.146;2023-04-25T13:58:14;0.87;;;0.80;;
5225;SDS011;2632;51.666;7.146;2023-04-25T14:00:40;2.67;;;0.80;;
5225;SDS011;2632;51.666;7.146;2023-04-25T14:03:09;5.80;;;0.70;;
5225;SDS011;2632;51.666;7.146;2023-04-25T14:05:36;2.80;;;0.70;;
5225;SDS011;2632;51.666;7.146;2023-04-25T14:08:08;2.10;;;1.07;;
5225;SDS011;2632;51.666;7.146;2023-04-25T14:10:35;1.33;;;0.83;;
5225;SDS011;2632;51.666;7.146;2023-04-25T14:13:04;2.60;;;0.90;;
5225;SDS011;2632;51.666;7.146;2023-04-25T14:15:34;6.10;;;0.80;;
5225;SDS011;2632;51.666;7.146;2023-04-25T14:18:01;3.43;;;0.93;;
5225;SDS011;2632;51.666;7.146;2023-04-25T14:20:28;0.83;;;0.73;;
5225;SDS011;2632;51.666;7.146;2023-04-25T14:22:55;6.53;;;1.10;;
5225;SDS011;2632;51.666;7.146;2023-04-25T14:25:24;1.07;;;0.83;;
5225;SDS011;2632;51.666;7.146;2023-04-25T14:27:51;2.67;;;1.07;;
5225;SDS011;2632;51.666;7.146;2023-04-25T14:30:18;2.20;;;0.87;;
5225;SDS011;2632;51.666;7.146;2023-04-25T14:32:46;4.93;;;1.13;;
5225;SDS011;2632;51.666;7.146;2023-04-25T14:35:14;1.50;;;1.00;;
5225;SDS011;2632;51.666;7.146;2023-04-25T14:37:41;2.50;;;1.00;;
5225;SDS011;2632;51.666;7.146;2023-04-25T14:40:08;3.63;;;1.17;;
5225;SDS011;2632;51.666;7.146;2023-04-25T14:42:37;2.20;;;0.70;;
5225;SDS011;2632;51.666;7.146;2023-04-25T14:45:04;1.93;;;1.13;;
5225;SDS011;2632;51.666;7.146;2023-04-25T14:47:32;1.90;;;0.80;;
5225;SDS011;2632;51.666;7.146;2023-04-25T14:49:59;2.70;;;1.10;;
5225;SDS011;2632;51.666;7.146;2023-04-25T14:52:27;2.20;;;0.80;;
5225;SDS011;2632;51.666;7.146;2023-04-25T14:54:54;1.37;;;0.87;;
5225;SDS011;2632;51.666;7.146;2023-04-25T14:57:21;3.70;;;1.03;;
5225;SDS011;2632;51.666;7.146;2023-04-25T14:59:47;4.60;;;1.17;;
5225;SDS011;2632;51.666;7.146;2023-04-25T15:02:14;2.90;;;0.80;;
5225;SDS011;2632;51.666;7.146;2023-04-25T15:04:41;1.70;;;0.77;;
5225;SDS011;2632;51.666;7.146;2023-04-25T15:07:08;1.70;;;0.80;;
5225;SDS011;2632;51.666;7.146;2023-04-25T15:09:34;3.37;;;0.77;;
5225;SDS011;2632;51.666;7.146;2023-04-25T15:12:01;4.50;;;0.93;;
5225;SDS011;2632;51.666;7.146;2023-04-25T15:14:28;1.40;;;0.80;;
5225;SDS011;2632;51.666;7.146;2023-04-25T15:16:54;3.90;;;1.07;;
5225;SDS011;2632;51.666;7.146;2023-04-25T15:19:21;2.53;;;1.20;;